sensor_id;sensor_type;location;lat;lon;timestamp;pressure;altitude;pressure_sealevel;temperature
71640;BMP280;60912;48.968;10.124;2023-05-27T00:01:39;97370.25;;;15.75
71640;BMP280;60912;48.968;10.124;2023-05-27T00:04:04;97369.88;;;15.78
71640;BMP280;60912;48.968;10.124;2023-05-27T00:06:29;97373.22;;;15.77
71640;BMP280;60912;48.968;10.124;2023-05-27T00:08:55;97368.41;;;15.69
71640;BMP280;60912;48.968;10.124;2023-05-27T00:11:20;97371.25;;;15.54
71640;BMP280;60912;48.968;10.124;2023-05-27T00:13:46;97367.72;;;15.54
71640;BMP280;60912;48.968;10.124;2023-05-27T00:16:12;97377.00;;;15.49
71640;BMP280;60912;48.968;10.124;2023-05-27T00:18:37;97378.28;;;15.48
71640;BMP280;60912;48.968;10.124;2023-05-27T00:21:03;97375.31;;;15.53
71640;BMP280;60912;48.968;10.124;2023-05-27T00:23:29;97378.28;;;15.55
71640;BMP280;60912;48.968;10.124;2023-05-27T00:25:54;97381.03;;;15.55
71640;BMP280;60912;48.968;10.124;2023-05-27T00:28:20;97371.25;;;15.54
71640;BMP280;60912;48.968;10.124;2023-05-27T00:30:45;97374.00;;;15.62
71640;BMP280;60912;48.968;10.124;2023-05-27T00:33:10;97367.72;;;15.61
71640;BMP280;60912;48.968;10.124;2023-05-27T00:35:36;97367.00;;;15.46
71640;BMP280;60912;48.968;10.124;2023-05-27T00:38:01;97373.34;;;15.16
71640;BMP280;60912;48.968;10.124;2023-05-27T00:40:29;97371.28;;;15.32
71640;BMP280;60912;48.968;10.124;2023-05-27T00:42:55;97370.34;;;15.44
71640;BMP280;60912;48.968;10.124;2023-05-27T00:45:21;97367.91;;;15.56
71640;BMP280;60912;48.968;10.124;2023-05-27T00:47:46;97358.84;;;15.48
71640;BMP280;60912;48.968;10.124;2023-05-27T00:50:12;97364.03;;;15.51
71640;BMP280;60912;48.968;10.124;2023-05-27T00:52:37;97357.88;;;15.60
71640;BMP280;60912;48.968;10.124;2023-05-27T00:55:06;97354.50;;;15.69
71640;BMP280;60912;48.968;10.124;2023-05-27T00:57:32;97353.97;;;15.71
71640;BMP280;60912;48.968;10.124;2023-05-27T00:59:58;97356.00;;;15.70
71640;BMP280;60912;48.968;10.124;2023-05-27T01:02:23;97342.88;;;15.63
71640;BMP280;60912;48.968;10.124;2023-05-27T01:04:49;97356.75;;;15.63
71640;BMP280;60912;48.968;10.124;2023-05-27T01:07:21;97349.91;;;15.64
71640;BMP280;60912;48.968;10.124;2023-05-27T01:15:06;97344.66;;;15.84
71640;BMP280;60912;48.968;10.124;2023-05-27T01:17:33;97340.19;;;15.81
71640;BMP280;60912;48.968;10.124;2023-05-27T01:20:03;97338.72;;;15.80
71640;BMP280;60912;48.968;10.124;2023-05-27T01:22:31;97338.22;;;15.74
71640;BMP280;60912;48.968;10.124;2023-05-27T01:24:56;97338.00;;;15.79
71640;BMP280;60912;48.968;10.124;2023-05-27T01:27:22;97336.13;;;15.82
71640;BMP280;60912;48.968;10.124;2023-05-27T01:29:51;97332.78;;;15.83
71640;BMP280;60912;48.968;10.124;2023-05-27T01:32:19;97328.41;;;15.73
71640;BMP280;60912;48.968;10.124;2023-05-27T01:35:04;97326.19;;;15.63
71640;BMP280;60912;48.968;10.124;2023-05-27T01:37:35;97333.06;;;15.62
71640;BMP280;60912;48.968;10.124;2023-05-27T01:40:05;97329.56;;;15.62
71640;BMP280;60912;48.968;10.124;2023-05-27T01:42:32;97325.31;;;15.53
71640;BMP280;60912;48.968;10.124;2023-05-27T01:45:00;97330.31;;;15.47
71640;BMP280;60912;48.968;10.124;2023-05-27T01:47:26;97324.75;;;15.47
71640;BMP280;60912;48.968;10.124;2023-05-27T01:49:52;97328.81;;;15.46
71640;BMP280;60912;48.968;10.124;2023-05-27T01:52:20;97327.38;;;15.45
71640;BMP280;60912;48.968;10.124;2023-05-27T01:54:45;97327.19;;;15.43
71640;BMP280;60912;48.968;10.124;2023-05-27T01:57:10;97323.31;;;15.31
71640;BMP280;60912;48.968;10.124;2023-05-27T01:59:36;97330.72;;;15.36
71640;BMP280;60912;48.968;10.124;2023-05-27T02:02:01;97322.78;;;15.40
71640;BMP280;60912;48.968;10.124;2023-05-27T02:04:27;97326.28;;;15.33
71640;BMP280;60912;48.968;10.124;2023-05-27T02:06:52;97327.94;;;15.36
71640;BMP280;60912;48.968;10.124;2023-05-27T02:09:17;97310.38;;;15.26
71640;BMP280;60912;48.968;10.124;2023-05-27T02:11:43;97323.91;;;15.22
71640;BMP280;60912;48.968;10.124;2023-05-27T02:14:08;97309.28;;;15.21
71640;BMP280;60912;48.968;10.124;2023-05-27T02:16:33;97320.00;;;15.25
71640;BMP280;60912;48.968;10.124;2023-05-27T02:19:00;97319.66;;;15.13
71640;BMP280;60912;48.968;10.124;2023-05-27T02:21:26;97313.00;;;15.09
71640;BMP280;60912;48.968;10.124;2023-05-27T02:23:51;97317.06;;;15.08
71640;BMP280;60912;48.968;10.124;2023-05-27T02:26:17;97312.09;;;14.99
71640;BMP280;60912;48.968;10.124;2023-05-27T02:28:42;97321.72;;;14.83
71640;BMP280;60912;48.968;10.124;2023-05-27T02:31:07;97322.66;;;14.47
71640;BMP280;60912;48.968;10.124;2023-05-27T02:33:33;97317.09;;;14.47
71640;BMP280;60912;48.968;10.124;2023-05-27T02:35:59;97316.72;;;14.51
71640;BMP280;60912;48.968;10.124;2023-05-27T02:38:24;97318.97;;;14.60
71640;BMP280;60912;48.968;10.124;2023-05-27T02:40:50;97317.84;;;14.70
71640;BMP280;60912;48.968;10.124;2023-05-27T02:43:16;97323.41;;;14.70
71640;BMP280;60912;48.968;10.124;2023-05-27T02:45:41;97313.41;;;14.75
71640;BMP280;60912;48.968;10.124;2023-05-27T02:48:07;97312.31;;;14.70
71640;BMP280;60912;48.968;10.124;2023-05-27T02:50:33;97312.66;;;14.67
71640;BMP280;60912;48.968;10.124;2023-05-27T02:52:58;97314.53;;;14.64
71640;BMP280;60912;48.968;10.124;2023-05-27T02:55:23;97316.34;;;14.54
71640;BMP280;60912;48.968;10.124;2023-05-27T02:57:49;97316.00;;;14.50
71640;BMP280;60912;48.968;10.124;2023-05-27T03:00:15;97313.59;;;14.54
71640;BMP280;60912;48.968;10.124;2023-05-27T03:02:44;97314.50;;;14.57
71640;BMP280;60912;48.968;10.124;2023-05-27T03:05:10;97311.56;;;14.47
71640;BMP280;60912;48.968;10.124;2023-05-27T03:07:35;97310.09;;;14.54
71640;BMP280;60912;48.968;10.124;2023-05-27T03:10:01;97308.56;;;14.45
71640;BMP280;60912;48.968;10.124;2023-05-27T03:12:34;97311.72;;;14.49
71640;BMP280;60912;48.968;10.124;2023-05-27T03:15:17;97302.31;;;14.52
71640;BMP280;60912;48.968;10.124;2023-05-27T03:17:46;97301.56;;;14.52
71640;BMP280;60912;48.968;10.124;2023-05-27T03:20:12;97308.94;;;14.57
71640;BMP280;60912;48.968;10.124;2023-05-27T03:22:38;97309.72;;;14.65
71640;BMP280;60912;48.968;10.124;2023-05-27T03:25:06;97305.25;;;14.62
71640;BMP280;60912;48.968;10.124;2023-05-27T03:27:32;97300.44;;;14.55
71640;BMP280;60912;48.968;10.124;2023-05-27T03:30:07;97310.28;;;14.48
71640;BMP280;60912;48.968;10.124;2023-05-27T03:32:35;97303.56;;;14.44
71640;BMP280;60912;48.968;10.124;2023-05-27T03:35:01;97303.06;;;14.53
71640;BMP280;60912;48.968;10.124;2023-05-27T03:37:26;97308.94;;;14.57
71640;BMP280;60912;48.968;10.124;2023-05-27T03:39:51;97300.63;;;14.57
71640;BMP280;60912;48.968;10.124;2023-05-27T03:42:18;97304.91;;;14.50
71640;BMP280;60912;48.968;10.124;2023-05-27T03:44:47;97297.84;;;14.49
71640;BMP280;60912;48.968;10.124;2023-05-27T03:47:22;97308.22;;;14.49
71640;BMP280;60912;48.968;10.124;2023-05-27T03:49:48;97310.47;;;14.65
71640;BMP280;60912;48.968;10.124;2023-05-27T03:52:14;97308.94;;;14.80
71640;BMP280;60912;48.968;10.124;2023-05-27T03:54:42;97305.09;;;14.75
71640;BMP280;60912;48.968;10.124;2023-05-27T03:57:08;97305.56;;;15.19
71640;BMP280;60912;48.968;10.124;2023-05-27T03:59:34;97304.56;;;15.54
71640;BMP280;60912;48.968;10.124;2023-05-27T04:01:59;97301.50;;;16.07
71640;BMP280;60912;48.968;10.124;2023-05-27T04:04:25;97299.34;;;16.55
71640;BMP280;60912;48.968;10.124;2023-05-27T04:06:50;97300.06;;;17.15
71640;BMP280;60912;48.968;10.124;2023-05-27T04:09:16;97302.66;;;17.64
71640;BMP280;60912;48.968;10.124;2023-05-27T04:11:41;97298.41;;;18.27
71640;BMP280;60912;48.968;10.124;2023-05-27T04:14:07;97297.75;;;18.45
71640;BMP280;60912;48.968;10.124;2023-05-27T04:16:33;97298.00;;;18.76
71640;BMP280;60912;48.968;10.124;2023-05-27T04:19:02;97301.69;;;19.55
71640;BMP280;60912;48.968;10.124;2023-05-27T04:21:27;97295.97;;;20.34
71640;BMP280;60912;48.968;10.124;2023-05-27T04:23:53;97300.53;;;20.81
71640;BMP280;60912;48.968;10.124;2023-05-27T04:26:18;97288.16;;;21.62
71640;BMP280;60912;48.968;10.124;2023-05-27T04:28:45;97298.22;;;22.11
71640;BMP280;60912;48.968;10.124;2023-05-27T04:31:11;97303.22;;;22.13
71640;BMP280;60912;48.968;10.124;2023-05-27T04:33:44;97302.66;;;21.58
71640;BMP280;60912;48.968;10.124;2023-05-27T04:36:10;97306.16;;;22.15
71640;BMP280;60912;48.968;10.124;2023-05-27T04:38:36;97296.59;;;22.43
71640;BMP280;60912;48.968;10.124;2023-05-27T04:41:01;97295.94;;;23.55
71640;BMP280;60912;48.968;10.124;2023-05-27T04:43:27;97292.66;;;23.72
71640;BMP280;60912;48.968;10.124;2023-05-27T04:45:55;97296.09;;;23.84
71640;BMP280;60912;48.968;10.124;2023-05-27T04:48:21;97300.88;;;24.63
71640;BMP280;60912;48.968;10.124;2023-05-27T04:50:48;97298.16;;;24.65
71640;BMP280;60912;48.968;10.124;2023-05-27T04:53:14;97297.81;;;25.16
71640;BMP280;60912;48.968;10.124;2023-05-27T04:55:41;97306.38;;;25.33
71640;BMP280;60912;48.968;10.124;2023-05-27T04:58:06;97309.13;;;25.02
71640;BMP280;60912;48.968;10.124;2023-05-27T05:00:32;97305.78;;;25.35
71640;BMP280;60912;48.968;10.124;2023-05-27T05:03:09;97309.84;;;25.32
71640;BMP280;60912;48.968;10.124;2023-05-27T05:05:36;97306.88;;;26.39
71640;BMP280;60912;48.968;10.124;2023-05-27T05:08:01;97303.16;;;26.86
71640;BMP280;60912;48.968;10.124;2023-05-27T05:10:26;97294.34;;;27.50
71640;BMP280;60912;48.968;10.124;2023-05-27T05:12:52;97300.00;;;28.29
71640;BMP280;60912;48.968;10.124;2023-05-27T05:15:17;97301.84;;;27.61
71640;BMP280;60912;48.968;10.124;2023-05-27T05:17:43;97308.19;;;27.99
71640;BMP280;60912;48.968;10.124;2023-05-27T05:20:09;97310.91;;;25.85
71640;BMP280;60912;48.968;10.124;2023-05-27T05:22:35;97300.97;;;25.84
71640;BMP280;60912;48.968;10.124;2023-05-27T05:25:00;97302.06;;;26.42
71640;BMP280;60912;48.968;10.124;2023-05-27T05:27:29;97299.78;;;25.89
71640;BMP280;60912;48.968;10.124;2023-05-27T05:29:56;97304.06;;;26.06
71640;BMP280;60912;48.968;10.124;2023-05-27T05:32:21;97306.97;;;25.92
71640;BMP280;60912;48.968;10.124;2023-05-27T05:34:47;97308.09;;;26.34
71640;BMP280;60912;48.968;10.124;2023-05-27T05:37:12;97303.31;;;26.72
71640;BMP280;60912;48.968;10.124;2023-05-27T05:39:41;97311.44;;;25.82
71640;BMP280;60912;48.968;10.124;2023-05-27T05:42:08;97315.66;;;24.91
71640;BMP280;60912;48.968;10.124;2023-05-27T05:44:36;97311.56;;;24.94
71640;BMP280;60912;48.968;10.124;2023-05-27T05:47:01;97302.88;;;25.33
71640;BMP280;60912;48.968;10.124;2023-05-27T05:49:29;97301.78;;;24.81
71640;BMP280;60912;48.968;10.124;2023-05-27T05:51:54;97309.69;;;24.29
71640;BMP280;60912;48.968;10.124;2023-05-27T05:54:20;97296.63;;;24.92
71640;BMP280;60912;48.968;10.124;2023-05-27T05:56:45;97310.19;;;24.25
71640;BMP280;60912;48.968;10.124;2023-05-27T05:59:11;97305.75;;;22.92
71640;BMP280;60912;48.968;10.124;2023-05-27T06:01:36;97302.59;;;22.03
71640;BMP280;60912;48.968;10.124;2023-05-27T06:04:04;97309.56;;;21.34
71640;BMP280;60912;48.968;10.124;2023-05-27T06:06:34;97311.81;;;20.93
71640;BMP280;60912;48.968;10.124;2023-05-27T06:09:00;97312.13;;;20.66
71640;BMP280;60912;48.968;10.124;2023-05-27T06:11:25;97308.50;;;21.18
71640;BMP280;60912;48.968;10.124;2023-05-27T06:13:51;97317.16;;;20.06
71640;BMP280;60912;48.968;10.124;2023-05-27T06:16:25;97326.22;;;20.47
71640;BMP280;60912;48.968;10.124;2023-05-27T06:18:50;97324.38;;;20.61
71640;BMP280;60912;48.968;10.124;2023-05-27T06:21:17;97320.91;;;20.72
71640;BMP280;60912;48.968;10.124;2023-05-27T06:23:48;97314.06;;;21.06
71640;BMP280;60912;48.968;10.124;2023-05-27T06:26:14;97316.53;;;21.12
71640;BMP280;60912;48.968;10.124;2023-05-27T06:28:52;97308.00;;;21.43
71640;BMP280;60912;48.968;10.124;2023-05-27T06:31:20;97314.47;;;21.45
71640;BMP280;60912;48.968;10.124;2023-05-27T06:33:48;97310.38;;;21.69
71640;BMP280;60912;48.968;10.124;2023-05-27T06:36:14;97325.16;;;21.37
71640;BMP280;60912;48.968;10.124;2023-05-27T06:38:39;97329.47;;;21.17
71640;BMP280;60912;48.968;10.124;2023-05-27T06:41:04;97327.59;;;21.31
71640;BMP280;60912;48.968;10.124;2023-05-27T06:43:30;97328.13;;;20.54
71640;BMP280;60912;48.968;10.124;2023-05-27T06:45:55;97329.41;;;20.32
71640;BMP280;60912;48.968;10.124;2023-05-27T06:48:21;97324.06;;;21.09
71640;BMP280;60912;48.968;10.124;2023-05-27T06:50:46;97324.94;;;20.91
71640;BMP280;60912;48.968;10.124;2023-05-27T06:53:11;97313.25;;;21.15
71640;BMP280;60912;48.968;10.124;2023-05-27T06:55:38;97311.19;;;21.16
71640;BMP280;60912;48.968;10.124;2023-05-27T06:58:03;97313.88;;;21.58
71640;BMP280;60912;48.968;10.124;2023-05-27T07:00:29;97317.41;;;21.47
71640;BMP280;60912;48.968;10.124;2023-05-27T07:02:57;97320.19;;;21.91
71640;BMP280;60912;48.968;10.124;2023-05-27T07:05:22;97314.34;;;22.22
71640;BMP280;60912;48.968;10.124;2023-05-27T07:07:47;97320.41;;;21.40
71640;BMP280;60912;48.968;10.124;2023-05-27T07:10:13;97315.84;;;21.23
71640;BMP280;60912;48.968;10.124;2023-05-27T07:12:38;97322.41;;;20.73
71640;BMP280;60912;48.968;10.124;2023-05-27T07:15:04;97318.13;;;20.94
71640;BMP280;60912;48.968;10.124;2023-05-27T07:17:30;97320.59;;;20.78
71640;BMP280;60912;48.968;10.124;2023-05-27T07:19:58;97327.69;;;21.00
71640;BMP280;60912;48.968;10.124;2023-05-27T07:22:23;97328.50;;;20.70
71640;BMP280;60912;48.968;10.124;2023-05-27T07:24:49;97329.22;;;21.13
71640;BMP280;60912;48.968;10.124;2023-05-27T07:27:14;97321.97;;;21.31
71640;BMP280;60912;48.968;10.124;2023-05-27T07:29:40;97320.66;;;21.32
71640;BMP280;60912;48.968;10.124;2023-05-27T07:32:05;97322.78;;;21.22
71640;BMP280;60912;48.968;10.124;2023-05-27T07:34:31;97319.19;;;21.10
71640;BMP280;60912;48.968;10.124;2023-05-27T07:36:56;97322.28;;;20.93
71640;BMP280;60912;48.968;10.124;2023-05-27T07:39:21;97318.69;;;20.28
71640;BMP280;60912;48.968;10.124;2023-05-27T07:41:47;97313.19;;;21.25
71640;BMP280;60912;48.968;10.124;2023-05-27T07:44:12;97314.31;;;21.99
71640;BMP280;60912;48.968;10.124;2023-05-27T07:46:37;97318.97;;;21.95
71640;BMP280;60912;48.968;10.124;2023-05-27T07:49:04;97311.50;;;22.11
71640;BMP280;60912;48.968;10.124;2023-05-27T07:51:30;97309.06;;;22.05
71640;BMP280;60912;48.968;10.124;2023-05-27T07:53:57;97308.69;;;22.57
71640;BMP280;60912;48.968;10.124;2023-05-27T07:56:22;97305.53;;;22.28
71640;BMP280;60912;48.968;10.124;2023-05-27T07:58:50;97309.03;;;22.52
71640;BMP280;60912;48.968;10.124;2023-05-27T08:01:15;97307.44;;;22.72
71640;BMP280;60912;48.968;10.124;2023-05-27T08:03:40;97308.19;;;22.72
71640;BMP280;60912;48.968;10.124;2023-05-27T08:06:06;97305.63;;;23.01
71640;BMP280;60912;48.968;10.124;2023-05-27T08:08:34;97303.97;;;23.47
71640;BMP280;60912;48.968;10.124;2023-05-27T08:10:59;97307.81;;;22.55
71640;BMP280;60912;48.968;10.124;2023-05-27T08:13:25;97299.63;;;21.77
71640;BMP280;60912;48.968;10.124;2023-05-27T08:15:50;97301.59;;;21.86
71640;BMP280;60912;48.968;10.124;2023-05-27T08:18:15;97302.19;;;21.73
71640;BMP280;60912;48.968;10.124;2023-05-27T08:20:41;97293.34;;;22.35
71640;BMP280;60912;48.968;10.124;2023-05-27T08:23:07;97283.81;;;22.17
71640;BMP280;60912;48.968;10.124;2023-05-27T08:25:32;97276.59;;;23.11
71640;BMP280;60912;48.968;10.124;2023-05-27T08:27:57;97280.91;;;23.00
71640;BMP280;60912;48.968;10.124;2023-05-27T08:30:27;97274.28;;;23.07
71640;BMP280;60912;48.968;10.124;2023-05-27T08:32:54;97272.41;;;22.98
71640;BMP280;60912;48.968;10.124;2023-05-27T08:35:19;97265.22;;;22.46
71640;BMP280;60912;48.968;10.124;2023-05-27T08:37:45;97275.03;;;23.08
71640;BMP280;60912;48.968;10.124;2023-05-27T08:40:14;97273.03;;;22.36
71640;BMP280;60912;48.968;10.124;2023-05-27T08:42:40;97273.16;;;22.87
71640;BMP280;60912;48.968;10.124;2023-05-27T08:45:06;97265.47;;;22.87
71640;BMP280;60912;48.968;10.124;2023-05-27T08:47:32;97269.13;;;22.41
71640;BMP280;60912;48.968;10.124;2023-05-27T08:49:58;97261.28;;;23.39
71640;BMP280;60912;48.968;10.124;2023-05-27T08:52:29;97260.50;;;23.50
71640;BMP280;60912;48.968;10.124;2023-05-27T08:54:56;97256.06;;;23.72
71640;BMP280;60912;48.968;10.124;2023-05-27T08:57:27;97259.19;;;23.78
71640;BMP280;60912;48.968;10.124;2023-05-27T08:59:53;97259.13;;;23.51
71640;BMP280;60912;48.968;10.124;2023-05-27T09:02:23;97262.34;;;23.07
71640;BMP280;60912;48.968;10.124;2023-05-27T09:04:49;97255.00;;;23.01
71640;BMP280;60912;48.968;10.124;2023-05-27T09:07:16;97252.66;;;23.35
71640;BMP280;60912;48.968;10.124;2023-05-27T09:09:42;97249.22;;;23.50
71640;BMP280;60912;48.968;10.124;2023-05-27T09:12:08;97244.72;;;23.97
71640;BMP280;60912;48.968;10.124;2023-05-27T09:14:34;97242.81;;;23.88
71640;BMP280;60912;48.968;10.124;2023-05-27T09:17:07;97249.34;;;23.52
71640;BMP280;60912;48.968;10.124;2023-05-27T09:19:33;97246.88;;;23.58
71640;BMP280;60912;48.968;10.124;2023-05-27T09:21:59;97239.94;;;23.34
71640;BMP280;60912;48.968;10.124;2023-05-27T09:24:26;97237.59;;;23.69
71640;BMP280;60912;48.968;10.124;2023-05-27T09:26:52;97243.03;;;23.92
71640;BMP280;60912;48.968;10.124;2023-05-27T09:29:18;97235.25;;;23.52
71640;BMP280;60912;48.968;10.124;2023-05-27T09:31:44;97246.13;;;23.19
71640;BMP280;60912;48.968;10.124;2023-05-27T09:34:11;97235.03;;;23.34
71640;BMP280;60912;48.968;10.124;2023-05-27T09:36:44;97226.13;;;23.65
71640;BMP280;60912;48.968;10.124;2023-05-27T09:39:11;97238.34;;;23.97
71640;BMP280;60912;48.968;10.124;2023-05-27T09:41:38;97231.84;;;23.67
71640;BMP280;60912;48.968;10.124;2023-05-27T09:44:06;97229.63;;;23.52
71640;BMP280;60912;48.968;10.124;2023-05-27T09:46:33;97231.03;;;24.05
71640;BMP280;60912;48.968;10.124;2023-05-27T09:48:59;97222.19;;;24.54
71640;BMP280;60912;48.968;10.124;2023-05-27T09:51:28;97212.63;;;24.45
71640;BMP280;60912;48.968;10.124;2023-05-27T09:53:54;97221.03;;;24.59
71640;BMP280;60912;48.968;10.124;2023-05-27T09:56:24;97221.13;;;23.91
71640;BMP280;60912;48.968;10.124;2023-05-27T09:58:53;97227.19;;;23.99
71640;BMP280;60912;48.968;10.124;2023-05-27T10:01:19;97215.09;;;23.96
71640;BMP280;60912;48.968;10.124;2023-05-27T10:03:45;97226.97;;;24.08
71640;BMP280;60912;48.968;10.124;2023-05-27T10:06:14;97219.94;;;23.41
71640;BMP280;60912;48.968;10.124;2023-05-27T10:08:42;97216.44;;;23.54
71640;BMP280;60912;48.968;10.124;2023-05-27T10:11:09;97205.19;;;24.23
71640;BMP280;60912;48.968;10.124;2023-05-27T10:13:35;97212.69;;;24.18
71640;BMP280;60912;48.968;10.124;2023-05-27T10:16:01;97204.44;;;23.81
71640;BMP280;60912;48.968;10.124;2023-05-27T10:18:28;97203.63;;;23.92
71640;BMP280;60912;48.968;10.124;2023-05-27T10:20:56;97213.34;;;23.23
71640;BMP280;60912;48.968;10.124;2023-05-27T10:26:04;97198.63;;;23.25
71640;BMP280;60912;48.968;10.124;2023-05-27T10:28:32;97202.66;;;23.47
71640;BMP280;60912;48.968;10.124;2023-05-27T10:31:14;97197.97;;;23.13
71640;BMP280;60912;48.968;10.124;2023-05-27T10:33:58;97205.66;;;22.98
71640;BMP280;60912;48.968;10.124;2023-05-27T10:36:26;97195.09;;;22.85
71640;BMP280;60912;48.968;10.124;2023-05-27T10:38:58;97193.44;;;23.33
71640;BMP280;60912;48.968;10.124;2023-05-27T10:41:24;97195.56;;;23.46
71640;BMP280;60912;48.968;10.124;2023-05-27T10:43:57;97191.41;;;23.88
71640;BMP280;60912;48.968;10.124;2023-05-27T10:46:23;97199.19;;;24.30
71640;BMP280;60912;48.968;10.124;2023-05-27T10:48:48;97192.84;;;24.02
71640;BMP280;60912;48.968;10.124;2023-05-27T10:51:14;97196.63;;;23.66
71640;BMP280;60912;48.968;10.124;2023-05-27T10:53:39;97189.25;;;23.86
71640;BMP280;60912;48.968;10.124;2023-05-27T10:56:05;97180.69;;;24.41
71640;BMP280;60912;48.968;10.124;2023-05-27T10:58:37;97190.84;;;24.32
71640;BMP280;60912;48.968;10.124;2023-05-27T11:01:14;97180.22;;;24.17
71640;BMP280;60912;48.968;10.124;2023-05-27T11:03:43;97178.03;;;24.58
71640;BMP280;60912;48.968;10.124;2023-05-27T11:06:10;97190.50;;;24.69
71640;BMP280;60912;48.968;10.124;2023-05-27T11:08:36;97174.31;;;24.40
71640;BMP280;60912;48.968;10.124;2023-05-27T11:11:10;97173.13;;;24.59
71640;BMP280;60912;48.968;10.124;2023-05-27T11:13:39;97178.13;;;24.17
71640;BMP280;60912;48.968;10.124;2023-05-27T11:16:06;97170.09;;;24.26
71640;BMP280;60912;48.968;10.124;2023-05-27T11:18:47;97173.06;;;24.00
71640;BMP280;60912;48.968;10.124;2023-05-27T11:21:14;97163.81;;;23.04
71640;BMP280;60912;48.968;10.124;2023-05-27T11:23:47;97172.69;;;23.26
71640;BMP280;60912;48.968;10.124;2023-05-27T11:26:18;97163.56;;;23.53
71640;BMP280;60912;48.968;10.124;2023-05-27T11:28:53;97159.25;;;24.20
71640;BMP280;60912;48.968;10.124;2023-05-27T11:31:21;97148.25;;;24.26
71640;BMP280;60912;48.968;10.124;2023-05-27T11:33:51;97148.94;;;24.54
71640;BMP280;60912;48.968;10.124;2023-05-27T11:36:17;97144.81;;;25.02
71640;BMP280;60912;48.968;10.124;2023-05-27T11:41:14;97140.81;;;24.91
71640;BMP280;60912;48.968;10.124;2023-05-27T11:44:05;97149.09;;;24.87
71640;BMP280;60912;48.968;10.124;2023-05-27T11:46:41;97139.00;;;25.29
71640;BMP280;60912;48.968;10.124;2023-05-27T11:49:08;97138.84;;;24.49
71640;BMP280;60912;48.968;10.124;2023-05-27T11:51:44;97135.16;;;24.91
71640;BMP280;60912;48.968;10.124;2023-05-27T11:54:29;97127.91;;;25.02
71640;BMP280;60912;48.968;10.124;2023-05-27T11:57:06;97129.00;;;25.10
71640;BMP280;60912;48.968;10.124;2023-05-27T11:59:36;97123.31;;;24.63
71640;BMP280;60912;48.968;10.124;2023-05-27T12:02:01;97132.03;;;24.25
71640;BMP280;60912;48.968;10.124;2023-05-27T12:04:32;97124.91;;;24.53
71640;BMP280;60912;48.968;10.124;2023-05-27T12:07:07;97119.84;;;24.49
71640;BMP280;60912;48.968;10.124;2023-05-27T12:09:33;97115.50;;;24.77
71640;BMP280;60912;48.968;10.124;2023-05-27T12:11:58;97106.97;;;25.22
71640;BMP280;60912;48.968;10.124;2023-05-27T12:14:23;97114.19;;;25.59
71640;BMP280;60912;48.968;10.124;2023-05-27T12:16:49;97109.94;;;25.42
71640;BMP280;60912;48.968;10.124;2023-05-27T12:19:18;97101.38;;;25.40
71640;BMP280;60912;48.968;10.124;2023-05-27T12:21:45;97097.34;;;25.12
71640;BMP280;60912;48.968;10.124;2023-05-27T12:24:11;97093.16;;;24.97
71640;BMP280;60912;48.968;10.124;2023-05-27T12:26:36;97088.56;;;24.59
71640;BMP280;60912;48.968;10.124;2023-05-27T12:29:11;97091.97;;;24.42
71640;BMP280;60912;48.968;10.124;2023-05-27T12:31:55;97079.41;;;24.74
71640;BMP280;60912;48.968;10.124;2023-05-27T12:34:41;97083.25;;;24.36
71640;BMP280;60912;48.968;10.124;2023-05-27T12:37:15;97076.63;;;24.45
71640;BMP280;60912;48.968;10.124;2023-05-27T12:39:51;97080.28;;;24.63
71640;BMP280;60912;48.968;10.124;2023-05-27T12:42:22;97075.88;;;24.73
71640;BMP280;60912;48.968;10.124;2023-05-27T12:44:57;97079.13;;;24.99
71640;BMP280;60912;48.968;10.124;2023-05-27T12:50:24;97073.84;;;25.07
71640;BMP280;60912;48.968;10.124;2023-05-27T12:52:52;97067.50;;;24.91
71640;BMP280;60912;48.968;10.124;2023-05-27T12:55:19;97065.75;;;24.68
71640;BMP280;60912;48.968;10.124;2023-05-27T12:58:03;97065.22;;;24.72
71640;BMP280;60912;48.968;10.124;2023-05-27T13:00:43;97055.66;;;24.63
71640;BMP280;60912;48.968;10.124;2023-05-27T13:03:43;97047.50;;;24.85
71640;BMP280;60912;48.968;10.124;2023-05-27T13:06:29;97047.84;;;24.77
71640;BMP280;60912;48.968;10.124;2023-05-27T13:08:57;97059.69;;;24.74
71640;BMP280;60912;48.968;10.124;2023-05-27T13:11:23;97046.00;;;24.68
71640;BMP280;60912;48.968;10.124;2023-05-27T13:13:48;97041.66;;;24.50
71640;BMP280;60912;48.968;10.124;2023-05-27T13:16:13;97042.94;;;24.62
71640;BMP280;60912;48.968;10.124;2023-05-27T13:18:39;97037.31;;;24.62
71640;BMP280;60912;48.968;10.124;2023-05-27T13:21:07;97042.69;;;24.11
71640;BMP280;60912;48.968;10.124;2023-05-27T13:23:33;97035.63;;;24.42
71640;BMP280;60912;48.968;10.124;2023-05-27T13:25:59;97030.75;;;24.73
71640;BMP280;60912;48.968;10.124;2023-05-27T13:28:24;97046.22;;;24.88
71640;BMP280;60912;48.968;10.124;2023-05-27T13:30:50;97036.03;;;24.81
71640;BMP280;60912;48.968;10.124;2023-05-27T13:33:15;97038.19;;;24.67
71640;BMP280;60912;48.968;10.124;2023-05-27T13:35:41;97026.94;;;24.98
71640;BMP280;60912;48.968;10.124;2023-05-27T13:38:06;97026.38;;;25.02
71640;BMP280;60912;48.968;10.124;2023-05-27T13:40:37;97022.13;;;24.85
71640;BMP280;60912;48.968;10.124;2023-05-27T13:43:19;97014.59;;;25.23
71640;BMP280;60912;48.968;10.124;2023-05-27T13:45:57;97015.41;;;24.61
71640;BMP280;60912;48.968;10.124;2023-05-27T13:48:23;97009.34;;;24.21
71640;BMP280;60912;48.968;10.124;2023-05-27T13:50:51;97010.91;;;24.25
71640;BMP280;60912;48.968;10.124;2023-05-27T13:53:47;97001.00;;;24.55
71640;BMP280;60912;48.968;10.124;2023-05-27T13:56:30;97002.19;;;24.97
71640;BMP280;60912;48.968;10.124;2023-05-27T13:59:00;96997.28;;;24.66
71640;BMP280;60912;48.968;10.124;2023-05-27T14:01:34;96991.06;;;25.01
71640;BMP280;60912;48.968;10.124;2023-05-27T14:04:10;96989.06;;;25.36
71640;BMP280;60912;48.968;10.124;2023-05-27T14:06:42;96986.38;;;25.23
71640;BMP280;60912;48.968;10.124;2023-05-27T14:09:12;96986.84;;;25.51
71640;BMP280;60912;48.968;10.124;2023-05-27T14:11:43;96984.72;;;25.00
71640;BMP280;60912;48.968;10.124;2023-05-27T14:14:08;96982.22;;;24.75